createdAt,value
2022-10-22T00:02:21.285Z,9.20
2022-10-22T00:04:48.421Z,9.60
2022-10-22T00:07:15.137Z,9.55
2022-10-22T00:09:41.511Z,10.05
2022-10-22T00:12:09.051Z,10.80
2022-10-22T00:14:35.645Z,10.70
2022-10-22T00:17:01.933Z,10.43
2022-10-22T00:19:28.240Z,10.35
2022-10-22T00:21:54.547Z,11.13
2022-10-22T00:24:22.374Z,10.95
2022-10-22T00:26:48.669Z,10.85
2022-10-22T00:29:15.122Z,11.25
2022-10-22T00:31:41.450Z,10.90
2022-10-22T00:34:07.717Z,11.07
2022-10-22T00:36:33.989Z,11.50
2022-10-22T00:39:00.460Z,12.18
2022-10-22T00:41:26.769Z,10.93
2022-10-22T00:43:53.811Z,11.63
2022-10-22T00:46:20.090Z,12.15
2022-10-22T00:48:46.482Z,11.73
2022-10-22T00:51:13.616Z,11.50
2022-10-22T00:53:43.490Z,11.93
2022-10-22T00:56:09.977Z,11.77
2022-10-22T00:58:38.774Z,12.45
2022-10-22T01:01:08.809Z,11.40
2022-10-22T01:03:35.173Z,12.18
2022-10-22T01:06:03.232Z,11.27
2022-10-22T01:08:32.704Z,11.90
2022-10-22T01:10:58.988Z,11.30
2022-10-22T01:13:32.903Z,10.48
2022-10-22T01:16:04.110Z,11.30
2022-10-22T01:18:59.675Z,11.60
2022-10-22T01:21:25.941Z,11.52
2022-10-22T01:24:05.949Z,11.55
2022-10-22T01:26:38.008Z,11.18
2022-10-22T01:29:13.345Z,11.48
2022-10-22T01:31:44.396Z,12.25
2022-10-22T01:34:12.363Z,11.45
2022-10-22T01:36:38.751Z,11.18
2022-10-22T01:39:05.517Z,11.38
2022-10-22T01:41:31.955Z,11.48
2022-10-22T01:43:58.240Z,9.85
2022-10-22T01:46:25.479Z,10.65
2022-10-22T01:49:12.684Z,10.27
2022-10-22T01:51:57.383Z,9.30
2022-10-22T01:54:34.092Z,10.50
2022-10-22T01:57:18.928Z,10.38
2022-10-22T01:59:54.435Z,10.52
2022-10-22T02:02:21.015Z,10.63
2022-10-22T02:05:02.563Z,9.77
2022-10-22T02:07:32.221Z,10.32
2022-10-22T02:09:59.604Z,9.60
2022-10-22T02:12:26.865Z,10.57
2022-10-22T02:14:53.736Z,10.45
2022-10-22T02:17:22.382Z,9.43
2022-10-22T02:19:56.770Z,10.75
2022-10-22T02:22:23.391Z,10.55
2022-10-22T02:24:50.215Z,10.75
2022-10-22T02:27:16.488Z,10.52
2022-10-22T02:29:57.800Z,11.05
2022-10-22T02:32:26.169Z,10.77
2022-10-22T02:34:53.028Z,11.40
2022-10-22T02:37:20.007Z,11.10
2022-10-22T02:39:46.519Z,10.18
2022-10-22T02:42:12.928Z,11.32
2022-10-22T02:44:39.235Z,11.05
2022-10-22T02:47:05.562Z,11.63
2022-10-22T02:49:31.867Z,11.32
2022-10-22T02:51:58.530Z,10.80
2022-10-22T02:54:24.804Z,11.07
2022-10-22T02:56:51.091Z,11.60
2022-10-22T02:59:17.393Z,11.13
2022-10-22T03:01:43.688Z,10.98
2022-10-22T03:04:09.991Z,10.57
2022-10-22T03:06:36.304Z,11.40
2022-10-22T03:09:02.705Z,10.00
2022-10-22T03:11:29.042Z,10.38
2022-10-22T03:13:55.327Z,12.65
2022-10-22T03:16:21.660Z,10.85
2022-10-22T03:18:47.930Z,11.20
2022-10-22T03:21:34.680Z,10.68
2022-10-22T03:24:02.918Z,11.02
2022-10-22T03:26:29.425Z,11.13
2022-10-22T03:28:55.869Z,11.60
2022-10-22T03:31:22.145Z,10.63
2022-10-22T03:33:48.517Z,10.50
2022-10-22T03:36:15.020Z,10.20
2022-10-22T03:38:41.599Z,11.07
2022-10-22T03:41:07.987Z,11.30
2022-10-22T03:43:35.063Z,10.20
2022-10-22T03:46:01.579Z,11.25
2022-10-22T03:48:27.879Z,9.70
2022-10-22T03:50:54.172Z,10.40
2022-10-22T03:53:20.527Z,10.48
2022-10-22T03:55:46.926Z,10.15
2022-10-22T03:58:13.227Z,9.93
2022-10-22T04:00:39.756Z,9.27
2022-10-22T04:03:06.086Z,9.63
2022-10-22T04:05:33.693Z,10.25
2022-10-22T04:08:00.246Z,10.40
2022-10-22T04:10:26.628Z,9.90
2022-10-22T04:12:52.963Z,9.52
2022-10-22T04:15:19.258Z,9.20
2022-10-22T04:17:45.587Z,11.05
2022-10-22T04:20:11.950Z,9.82
2022-10-22T04:22:38.284Z,10.60
2022-10-22T04:25:04.995Z,10.73
2022-10-22T04:27:32.329Z,9.68
2022-10-22T04:29:58.745Z,9.68
2022-10-22T04:32:25.724Z,10.15
2022-10-22T04:34:52.038Z,11.43
2022-10-22T04:37:18.531Z,10.52
2022-10-22T04:39:44.875Z,9.80
2022-10-22T04:42:11.243Z,9.00
2022-10-22T04:44:37.515Z,10.00
2022-10-22T04:47:03.991Z,11.20
2022-10-22T04:49:30.259Z,10.35
2022-10-22T04:51:56.747Z,10.75
2022-10-22T04:54:23.144Z,10.80
2022-10-22T04:56:49.418Z,11.70
2022-10-22T04:59:15.773Z,11.60
2022-10-22T05:01:43.483Z,10.73
2022-10-22T05:04:14.231Z,11.18
2022-10-22T05:06:40.686Z,10.52
2022-10-22T05:09:08.456Z,10.90
2022-10-22T05:11:36.067Z,9.82
2022-10-22T05:14:03.479Z,10.73
2022-10-22T05:16:30.313Z,9.35
2022-10-22T05:18:57.903Z,12.02
2022-10-22T05:21:24.200Z,10.20
2022-10-22T05:23:50.749Z,11.20
2022-10-22T05:26:18.812Z,11.30
2022-10-22T05:28:45.513Z,9.52
2022-10-22T05:31:12.771Z,9.98
2022-10-22T05:33:39.456Z,10.10
2022-10-22T05:36:06.962Z,10.73
2022-10-22T05:38:33.948Z,10.30
2022-10-22T05:41:00.778Z,11.57
2022-10-22T05:43:27.222Z,10.60
2022-10-22T05:45:53.483Z,10.68
2022-10-22T05:48:19.977Z,11.25
2022-10-22T05:50:50.496Z,9.90
2022-10-22T05:53:18.311Z,10.32
2022-10-22T05:55:44.668Z,10.55
2022-10-22T05:58:11.943Z,11.02
2022-10-22T06:00:38.234Z,11.35
2022-10-22T06:03:04.623Z,11.48
2022-10-22T06:05:30.924Z,11.27
2022-10-22T06:07:57.448Z,10.55
2022-10-22T06:10:23.855Z,10.95
2022-10-22T06:12:50.268Z,11.60
2022-10-22T06:15:17.861Z,10.13
2022-10-22T06:17:44.533Z,11.48
2022-10-22T06:20:11.499Z,11.35
2022-10-22T06:22:37.854Z,11.55
2022-10-22T06:25:04.794Z,11.30
2022-10-22T06:27:31.108Z,11.23
2022-10-22T06:29:57.380Z,10.68
2022-10-22T06:32:23.691Z,11.60
2022-10-22T06:34:50.440Z,10.90
2022-10-22T06:37:17.406Z,11.38
2022-10-22T06:39:43.691Z,10.75
2022-10-22T06:42:10.015Z,10.82
2022-10-22T06:44:36.395Z,11.05
2022-10-22T06:47:02.703Z,10.25
2022-10-22T06:49:28.986Z,11.52
2022-10-22T06:51:55.310Z,8.35
2022-10-22T06:54:22.171Z,10.15
2022-10-22T06:56:48.609Z,9.73
2022-10-22T06:59:14.939Z,10.45
2022-10-22T07:01:42.203Z,11.10
2022-10-22T07:04:09.900Z,10.35
2022-10-22T07:06:36.480Z,9.05
2022-10-22T07:09:02.947Z,9.73
2022-10-22T07:11:30.694Z,8.68
2022-10-22T07:13:58.035Z,8.98
2022-10-22T07:16:28.173Z,8.52
2022-10-22T07:18:58.663Z,9.10
2022-10-22T07:21:28.123Z,9.88
2022-10-22T07:23:54.736Z,9.68
2022-10-22T07:26:21.174Z,10.05
2022-10-22T07:28:48.070Z,8.07
2022-10-22T07:31:15.007Z,7.63
2022-10-22T07:33:41.372Z,7.00
2022-10-22T07:36:09.025Z,7.03
2022-10-22T07:38:35.485Z,5.93
2022-10-22T07:41:02.165Z,6.13
2022-10-22T07:43:28.444Z,5.88
2022-10-22T07:45:57.851Z,5.68
2022-10-22T07:48:24.439Z,5.18
2022-10-22T07:50:51.352Z,5.00
2022-10-22T07:53:18.022Z,4.93
2022-10-22T07:55:44.430Z,5.00
2022-10-22T07:58:10.694Z,4.70
2022-10-22T08:00:37.593Z,4.60
2022-10-22T08:03:04.141Z,4.68
2022-10-22T08:05:30.416Z,4.45
2022-10-22T08:07:56.690Z,4.75
2022-10-22T08:10:22.994Z,5.30
2022-10-22T08:12:49.319Z,5.18
2022-10-22T08:15:15.704Z,4.28
2022-10-22T08:17:42.380Z,4.30
2022-10-22T08:20:09.052Z,4.13
2022-10-22T08:22:35.343Z,3.83
2022-10-22T08:25:01.721Z,3.83
2022-10-22T08:27:27.994Z,3.40
2022-10-22T08:29:54.286Z,3.28
2022-10-22T08:32:20.589Z,3.38
2022-10-22T08:34:46.875Z,3.38
2022-10-22T08:37:14.283Z,2.88
2022-10-22T08:39:41.199Z,4.43
2022-10-22T08:42:26.189Z,3.38
2022-10-22T08:45:06.637Z,3.67
2022-10-22T08:47:51.671Z,3.50
2022-10-22T08:50:22.608Z,3.33
2022-10-22T08:52:52.313Z,3.10
2022-10-22T08:55:18.742Z,3.45
2022-10-22T08:58:08.335Z,3.00
2022-10-22T09:00:34.635Z,3.20
2022-10-22T09:03:06.863Z,3.95
2022-10-22T09:08:23.287Z,3.42
2022-10-22T09:10:51.886Z,3.20
2022-10-22T09:13:20.430Z,3.55
2022-10-22T09:15:52.484Z,3.00
2022-10-22T09:18:21.853Z,3.35
2022-10-22T09:20:49.752Z,3.58
2022-10-22T09:23:34.896Z,3.53
2022-10-22T09:26:01.263Z,2.90
2022-10-22T09:28:27.635Z,3.33
2022-10-22T09:30:54.120Z,3.00
2022-10-22T09:33:27.611Z,3.65
2022-10-22T09:35:55.767Z,2.80
2022-10-22T09:38:25.858Z,3.42
2022-10-22T09:40:54.077Z,3.58
2022-10-22T09:43:20.389Z,3.78
2022-10-22T09:45:47.298Z,4.10
2022-10-22T09:48:14.703Z,3.05
2022-10-22T09:50:43.418Z,2.65
2022-10-22T09:53:14.093Z,3.78
2022-10-22T09:55:41.613Z,3.33
2022-10-22T09:58:10.116Z,3.03
2022-10-22T10:00:37.921Z,2.97
2022-10-22T10:03:04.265Z,2.60
2022-10-22T10:05:34.421Z,3.40
2022-10-22T10:08:14.055Z,2.67
2022-10-22T10:10:46.527Z,3.33
2022-10-22T10:13:22.381Z,2.60
2022-10-22T10:16:08.907Z,2.90
2022-10-22T10:18:54.490Z,2.65
2022-10-22T10:21:39.762Z,2.90
2022-10-22T10:24:06.012Z,3.20
2022-10-22T10:26:39.089Z,2.90
2022-10-22T10:29:14.038Z,2.70
2022-10-22T10:31:47.407Z,2.88
2022-10-22T10:34:24.283Z,2.90
2022-10-22T10:37:10.318Z,2.53
2022-10-22T10:39:45.802Z,2.60
2022-10-22T10:42:21.663Z,2.45
2022-10-22T10:44:56.759Z,3.15
2022-10-22T10:47:39.040Z,2.90
2022-10-22T10:50:16.485Z,2.65
2022-10-22T10:53:03.942Z,2.80
2022-10-22T10:55:42.898Z,2.55
2022-10-22T10:58:09.138Z,2.90
2022-10-22T11:00:40.874Z,2.58
2022-10-22T11:03:16.190Z,2.58
2022-10-22T11:05:46.063Z,2.55
2022-10-22T11:08:15.265Z,2.58
2022-10-22T11:10:53.790Z,2.45
2022-10-22T11:13:20.295Z,2.30
2022-10-22T11:15:50.397Z,2.67
2022-10-22T11:18:27.616Z,2.65
2022-10-22T11:21:08.982Z,2.40
2022-10-22T11:23:51.637Z,2.10
2022-10-22T11:26:43.981Z,2.95
2022-10-22T11:29:17.260Z,2.03
2022-10-22T11:31:44.419Z,2.40
2022-10-22T11:34:34.760Z,2.67
2022-10-22T11:37:03.074Z,2.40
2022-10-22T11:39:36.339Z,2.30
2022-10-22T11:42:04.301Z,2.05
2022-10-22T11:44:32.412Z,2.15
2022-10-22T11:47:15.517Z,2.50
2022-10-22T11:49:43.062Z,2.75
2022-10-22T11:52:26.079Z,2.78
2022-10-22T11:54:57.649Z,1.98
2022-10-22T11:57:26.657Z,2.70
2022-10-22T11:59:55.939Z,2.92
2022-10-22T12:02:28.074Z,2.60
2022-10-22T12:05:12.786Z,3.40
2022-10-22T12:07:58.322Z,3.88
2022-10-22T12:10:28.217Z,3.22
2022-10-22T12:13:01.303Z,4.95
2022-10-22T12:15:28.570Z,3.47
2022-10-22T12:18:04.066Z,3.03
2022-10-22T12:20:32.436Z,2.75
2022-10-22T12:23:00.652Z,2.38
2022-10-22T12:25:34.775Z,2.25
2022-10-22T12:28:02.787Z,2.92
2022-10-22T12:30:34.604Z,3.53
2022-10-22T12:33:02.728Z,3.45
2022-10-22T12:35:30.589Z,2.85
2022-10-22T12:37:57.966Z,3.25
2022-10-22T12:40:26.596Z,3.00
2022-10-22T12:42:54.211Z,3.13
2022-10-22T12:45:20.585Z,2.72
2022-10-22T12:47:52.266Z,2.35
2022-10-22T12:50:32.807Z,2.30
2022-10-22T12:52:59.361Z,3.92
2022-10-22T12:55:25.900Z,3.30
2022-10-22T12:57:52.436Z,3.08
2022-10-22T13:00:23.346Z,3.53
2022-10-22T13:02:49.738Z,3.35
2022-10-22T13:05:33.991Z,3.25
2022-10-22T13:08:04.559Z,3.55
2022-10-22T13:10:32.269Z,3.10
2022-10-22T13:12:58.778Z,3.28
2022-10-22T13:15:28.122Z,3.13
2022-10-22T13:18:04.773Z,3.35
2022-10-22T13:20:31.345Z,3.10
2022-10-22T13:23:02.683Z,3.78
2022-10-22T13:25:29.962Z,3.72
2022-10-22T13:27:57.819Z,2.70
2022-10-22T13:30:27.022Z,4.38
2022-10-22T13:33:06.661Z,3.10
2022-10-22T13:35:34.550Z,3.83
2022-10-22T13:38:01.047Z,3.30
2022-10-22T13:40:27.728Z,3.20
2022-10-22T13:42:54.155Z,3.38
2022-10-22T13:45:20.521Z,4.13
2022-10-22T13:47:52.454Z,4.22
2022-10-22T13:50:19.502Z,4.28
2022-10-22T13:52:49.539Z,2.90
2022-10-22T13:55:29.636Z,3.22
2022-10-22T13:58:12.063Z,3.38
2022-10-22T14:00:40.729Z,3.50
2022-10-22T14:03:09.803Z,3.08
2022-10-22T14:05:36.088Z,3.58
2022-10-22T14:08:02.731Z,4.65
2022-10-22T14:10:29.038Z,4.28
2022-10-22T14:12:55.324Z,3.17
2022-10-22T14:15:24.023Z,3.20
2022-10-22T14:17:52.985Z,3.70
2022-10-22T14:20:20.970Z,3.60
2022-10-22T14:22:48.002Z,3.85
2022-10-22T14:25:15.833Z,3.63
2022-10-22T14:27:42.630Z,3.70
2022-10-22T14:30:09.541Z,3.58
2022-10-22T14:32:35.893Z,4.22
2022-10-22T14:35:02.205Z,4.20
2022-10-22T14:37:28.573Z,4.15
2022-10-22T14:40:01.157Z,3.55
2022-10-22T14:42:27.993Z,3.72
2022-10-22T14:44:54.463Z,3.72
2022-10-22T14:47:21.309Z,3.13
2022-10-22T14:49:47.609Z,3.70
2022-10-22T14:52:15.978Z,3.50
2022-10-22T14:54:42.278Z,4.18
2022-10-22T14:57:11.293Z,3.33
2022-10-22T14:59:37.774Z,3.28
2022-10-22T15:02:04.054Z,3.30
2022-10-22T15:04:30.484Z,3.38
2022-10-22T15:06:56.844Z,4.38
2022-10-22T15:09:23.667Z,4.13
2022-10-22T15:11:50.483Z,3.10
2022-10-22T15:14:17.032Z,4.07
2022-10-22T15:16:43.316Z,3.85
2022-10-22T15:19:11.095Z,4.32
2022-10-22T15:21:37.423Z,4.15
2022-10-22T15:24:04.670Z,3.53
2022-10-22T15:26:30.947Z,3.83
2022-10-22T15:28:57.254Z,5.15
2022-10-22T15:31:43.824Z,4.10
2022-10-22T15:34:10.266Z,3.42
2022-10-22T15:36:36.534Z,2.80
2022-10-22T15:39:09.853Z,4.72
2022-10-22T15:41:37.020Z,3.60
2022-10-22T15:44:05.739Z,4.28
2022-10-22T15:46:35.349Z,4.00
2022-10-22T15:49:01.931Z,3.22
2022-10-22T15:51:28.258Z,4.18
2022-10-22T15:53:55.684Z,3.33
2022-10-22T15:56:22.027Z,3.58
2022-10-22T15:58:52.099Z,3.83
2022-10-22T16:01:18.464Z,3.58
2022-10-22T16:03:45.151Z,3.58
2022-10-22T16:06:11.464Z,3.65
2022-10-22T16:08:38.278Z,3.70
2022-10-22T16:11:05.063Z,4.03
2022-10-22T16:13:31.500Z,3.80
2022-10-22T16:15:57.780Z,4.25
2022-10-22T16:18:26.974Z,3.72
2022-10-22T16:20:53.252Z,3.63
2022-10-22T16:23:20.763Z,4.50
2022-10-22T16:25:47.093Z,4.40
2022-10-22T16:28:13.687Z,4.00
2022-10-22T16:30:40.270Z,4.20
2022-10-22T16:33:06.828Z,4.68
2022-10-22T16:35:33.129Z,4.13
2022-10-22T16:37:59.558Z,5.28
2022-10-22T16:40:25.831Z,3.90
2022-10-22T16:42:52.248Z,4.38
2022-10-22T16:45:18.584Z,4.93
2022-10-22T16:47:46.915Z,3.90
2022-10-22T16:50:13.625Z,4.30
2022-10-22T16:52:41.133Z,4.10
2022-10-22T16:55:07.570Z,4.97
2022-10-22T16:57:33.958Z,6.80
2022-10-22T17:00:00.242Z,7.70
2022-10-22T17:02:26.536Z,7.72
2022-10-22T17:04:52.806Z,8.32
2022-10-22T17:07:19.140Z,8.25
2022-10-22T17:09:45.485Z,7.40
2022-10-22T17:12:11.765Z,7.68
2022-10-22T17:14:38.067Z,9.43
2022-10-22T17:17:04.601Z,9.40
2022-10-22T17:19:30.950Z,12.93
2022-10-22T17:21:57.243Z,11.02
2022-10-22T17:24:23.522Z,11.05
2022-10-22T17:26:49.820Z,10.30
2022-10-22T17:29:16.704Z,9.75
2022-10-22T17:31:43.020Z,11.60
2022-10-22T17:34:10.716Z,10.48
2022-10-22T17:36:37.080Z,11.48
2022-10-22T17:39:05.017Z,10.98
2022-10-22T17:41:32.313Z,10.00
2022-10-22T17:44:01.906Z,11.20
2022-10-22T17:46:29.090Z,11.88
2022-10-22T17:48:57.128Z,11.32
2022-10-22T17:51:24.410Z,10.93
2022-10-22T17:53:50.946Z,10.35
2022-10-22T17:56:18.336Z,10.77
2022-10-22T17:58:44.624Z,10.48
2022-10-22T18:01:21.928Z,11.05
2022-10-22T18:03:48.740Z,10.88
2022-10-22T18:06:15.338Z,10.00
2022-10-22T18:08:41.776Z,9.77
2022-10-22T18:11:13.041Z,11.90
2022-10-22T18:13:39.368Z,9.52
2022-10-22T18:16:05.840Z,9.75
2022-10-22T18:18:33.459Z,9.82
2022-10-22T18:21:00.543Z,10.35
2022-10-22T18:23:27.056Z,9.40
2022-10-22T18:25:53.526Z,9.88
2022-10-22T18:28:20.542Z,10.10
2022-10-22T18:30:47.304Z,10.00
2022-10-22T18:33:14.327Z,9.38
2022-10-22T18:35:43.439Z,10.52
2022-10-22T18:38:10.275Z,9.52
2022-10-22T18:40:38.523Z,10.10
2022-10-22T18:43:04.796Z,14.57
2022-10-22T18:45:32.540Z,15.48
2022-10-22T18:48:00.596Z,10.50
2022-10-22T18:50:27.776Z,11.07
2022-10-22T18:52:54.422Z,11.63
2022-10-22T18:55:20.701Z,11.75
2022-10-22T18:57:47.306Z,12.15
2022-10-22T19:00:14.199Z,11.88
2022-10-22T19:02:40.836Z,10.95
2022-10-22T19:05:07.467Z,17.52
2022-10-22T19:07:34.064Z,16.05
2022-10-22T19:10:00.465Z,18.02
2022-10-22T19:12:26.753Z,20.00
2022-10-22T19:14:53.099Z,21.50
2022-10-22T19:17:19.388Z,20.00
2022-10-22T19:19:45.692Z,19.92
2022-10-22T19:22:13.445Z,20.35
2022-10-22T19:24:39.770Z,17.73
2022-10-22T19:27:06.122Z,17.33
2022-10-22T19:29:32.456Z,15.32
2022-10-22T19:31:58.918Z,15.30
2022-10-22T19:34:25.274Z,15.43
2022-10-22T19:36:51.830Z,14.95
2022-10-22T19:39:18.467Z,16.67
2022-10-22T19:41:44.854Z,14.68
2022-10-22T19:44:11.401Z,13.95
2022-10-22T19:46:37.801Z,16.63
2022-10-22T19:49:04.460Z,16.83
2022-10-22T19:51:31.252Z,29.55
2022-10-22T19:53:59.118Z,25.70
2022-10-22T19:56:25.423Z,35.90
2022-10-22T19:58:51.783Z,40.08
2022-10-22T20:01:18.494Z,35.63
2022-10-22T20:03:44.952Z,27.38
2022-10-22T20:06:12.434Z,21.10
2022-10-22T20:08:38.894Z,20.52
2022-10-22T20:11:07.311Z,20.10
2022-10-22T20:13:37.097Z,17.92
2022-10-22T20:16:03.972Z,16.90
2022-10-22T20:18:32.567Z,17.95
2022-10-22T20:20:58.850Z,17.45
2022-10-22T20:23:25.205Z,20.35
2022-10-22T20:25:51.484Z,22.38
2022-10-22T20:28:17.764Z,24.42
2022-10-22T20:30:44.877Z,22.23
2022-10-22T20:33:14.464Z,19.20
2022-10-22T20:35:40.797Z,18.98
2022-10-22T20:38:07.667Z,18.17
2022-10-22T20:40:34.326Z,17.38
2022-10-22T20:43:01.062Z,16.73
2022-10-22T20:45:27.575Z,16.70
2022-10-22T20:48:02.046Z,15.85
2022-10-22T20:50:31.302Z,15.45
2022-10-22T20:52:57.844Z,13.27
2022-10-22T20:55:24.224Z,15.88
2022-10-22T20:57:51.575Z,15.63
2022-10-22T21:00:18.002Z,14.93
2022-10-22T21:02:44.333Z,15.75
2022-10-22T21:05:10.625Z,15.57
2022-10-22T21:07:36.934Z,15.43
2022-10-22T21:10:03.995Z,15.50
2022-10-22T21:12:30.255Z,14.75
2022-10-22T21:14:56.566Z,15.65
2022-10-22T21:17:22.866Z,15.25
2022-10-22T21:19:49.142Z,14.50
2022-10-22T21:22:15.415Z,16.15
2022-10-22T21:24:42.156Z,16.40
2022-10-22T21:27:08.907Z,18.33
2022-10-22T21:29:35.158Z,19.90
2022-10-22T21:32:03.936Z,18.67
2022-10-22T21:34:30.485Z,18.50
2022-10-22T21:36:57.462Z,18.85
2022-10-22T21:39:23.736Z,20.50
2022-10-22T21:41:50.106Z,17.77
2022-10-22T21:44:16.420Z,19.33
2022-10-22T21:46:42.744Z,19.83
2022-10-22T21:49:09.088Z,19.10
2022-10-22T21:51:37.925Z,19.23
2022-10-22T21:54:04.358Z,18.55
2022-10-22T21:56:34.880Z,17.90
2022-10-22T21:59:02.944Z,17.98
2022-10-22T22:01:29.479Z,18.52
2022-10-22T22:03:55.871Z,17.92
2022-10-22T22:06:26.272Z,17.88
2022-10-22T22:08:54.284Z,19.38
2022-10-22T22:11:22.207Z,19.48
2022-10-22T22:13:48.846Z,18.48
2022-10-22T22:16:22.436Z,19.42
2022-10-22T22:18:52.015Z,20.08
2022-10-22T22:21:19.349Z,20.73
2022-10-22T22:23:46.395Z,21.50
2022-10-22T22:26:13.368Z,22.05
2022-10-22T22:28:39.672Z,20.48
2022-10-22T22:31:16.393Z,21.02
2022-10-22T22:33:42.727Z,20.85
2022-10-22T22:36:09.516Z,21.05
2022-10-22T22:38:36.908Z,20.48
2022-10-22T22:41:03.331Z,19.92
2022-10-22T22:43:29.644Z,19.17
2022-10-22T22:46:03.610Z,20.08
2022-10-22T22:48:30.236Z,19.08
2022-10-22T22:50:56.791Z,19.48
2022-10-22T22:53:23.083Z,19.13
2022-10-22T22:55:50.043Z,18.08
2022-10-22T22:58:16.335Z,17.08
2022-10-22T23:00:42.725Z,17.38
2022-10-22T23:03:09.005Z,17.08
2022-10-22T23:05:36.171Z,17.85
2022-10-22T23:08:02.455Z,16.83
2022-10-22T23:10:28.764Z,15.07
2022-10-22T23:12:55.024Z,17.52
2022-10-22T23:15:21.416Z,17.23
2022-10-22T23:17:47.683Z,16.95
2022-10-22T23:20:13.999Z,17.88
2022-10-22T23:22:40.498Z,16.33
2022-10-22T23:25:07.090Z,15.48
2022-10-22T23:27:33.367Z,15.68
2022-10-22T23:29:59.670Z,16.40
2022-10-22T23:32:25.951Z,15.93
2022-10-22T23:34:52.236Z,15.73
2022-10-22T23:37:18.583Z,16.60
2022-10-22T23:39:44.863Z,15.95
2022-10-22T23:42:11.147Z,16.63
2022-10-22T23:44:37.439Z,18.05
2022-10-22T23:47:03.738Z,17.05
2022-10-22T23:49:30.032Z,17.30
2022-10-22T23:51:56.298Z,17.38
2022-10-22T23:54:23.623Z,17.05
2022-10-22T23:56:49.907Z,22.00
2022-10-22T23:59:16.453Z,19.65
